Historyczne dane pomiarowe

Dodano dane terminowe – wersja testowa.

Dane z okresu 1951-2019

Wersja bazy: 1.34 [2019-03-16, lista zmian], aktualizacja planowana na 2019-04-15

Dane meteo z obszaru Polski uzyskane na podstawie danych udostępnionych przez Instytut Meteorologii i Gospodarki Wodnej – Państwowy Instytut Badawczy.

 

Wybierz Datę:    

       

TemperaturaWilgotnośćWiatrCiśnienieOpadyŚniegCzas trwania zjawisk
 Stacja t tx tn tng RH VA  wxwx mslp ppp RRR   cm mm wxwxwxwxwxwxwx
1961-08-14 9.7 16.1 3.8--- 2.0 0.3---- 0.0------------
1961-08-13 9.4 19.6 7.3--- 5.7 0.0---- 11.6------------
1961-08-12 18.8 22.6 12.0--- 7.0 0.0---- 23.7------------
1961-08-11 21.5 29.2 16.0--- 0.3 3.7---- 0.0------------
1961-08-10 24.9 29.1 15.1--- 1.3 1.3---- 0.0------------
1961-08-09 21.4 26.6 15.2--- 3.3 0.0---- 6.3------------
1961-08-08 18.0 23.2 14.3--- 4.0 0.0---- 0.0------------
1961-08-07 22.2 27.6 20.2--- 2.3 1.3---- 1.1------------
1961-08-06 23.2 27.0 13.4--- 0.0 2.7---- 0.0------------
1961-08-05 16.2 20.7 11.2--- 4.0 0.7---- 0.0------------
1961-08-04 13.0 17.8 8.3--- 5.0 0.3---- 0.0------------
1961-08-03 14.3 19.5 11.1--- 6.7 0.7---- 5.5------------
1961-08-02 16.3 22.7 9.7--- 1.7 1.0---- 0.0------------
1961-08-01 12.6 17.9 7.7--- 2.0 1.7---- 0.0------------
1961-07-31 10.0 13.2 7.8--- 8.0 0.7---- 10.0------------
1961-07-30 8.2 9.5 7.9--- 8.0 0.7---- 13.8------------
1961-07-29 10.0 17.4 9.3--- 8.0 0.7---- 28.6------------
1961-07-28 19.4 23.7 13.8--- 5.7 1.7---- 28.0------------
1961-07-27 20.3 23.3 13.8--- 1.3 2.0---- 0.0------------
1961-07-26 15.2 19.9 4.1--- 2.3 0.7---- 0.0------------
1961-07-25 9.3 14.6 4.1--- 6.0 0.3---- 0.0------------
1961-07-24 11.5 15.3 9.8--- 7.0 0.3---- 0.0------------
1961-07-23 13.8 17.2 7.3--- 6.0 0.3---- 0.2------------
1961-07-22 12.3 16.9 9.5--- 4.3 0.3---- 3.1------------
1961-07-21 13.6 15.5 7.7--- 6.0 0.7---- 5.5------------
1961-07-20 11.6 15.3 7.8--- 7.3 0.0---- 6.8------------
1961-07-19 13.0 17.3 7.8--- 5.7 0.3---- 1.7------------
1961-07-18 12.7 16.7 6.4--- 4.3 1.0---- 0.0------------
1961-07-17 14.4 18.9 9.2--- 2.7 1.0---- 0.6------------
1961-07-16 13.8 18.9 11.7--- 6.0 1.0---- 2.3------------
1961-07-15 17.1 21.7 12.4--- 5.0 1.3---- 9.9------------
1961-07-14 13.5 16.3 10.9--- 5.0 3.0---- 0.0------------
1961-07-13 18.0 24.7 13.5--- 2.3 5.7---- 9.7------------
1961-07-12 18.3 24.3 11.8--- 1.7 2.7---- 5.0------------
1961-07-11 14.9 19.3 5.3--- 0.3 0.0---- 0.0------------
1961-07-10 13.1 16.7 9.0--- 5.0 0.3---- 1.9------------
1961-07-09 14.5 18.2 7.0--- 3.3 0.7---- 4.6------------
1961-07-08 12.7 17.9 4.0--- 1.7 0.0---- 0.0------------
1961-07-07 9.7 14.5 4.4--- 5.0 0.7---- 0.0------------
1961-07-06 10.1 13.4 4.2--- 5.7 1.3---- 0.2------------
1961-07-05 10.2 19.3 8.3--- 5.3 0.7---- 0.0------------
1961-07-04 21.4 26.5 15.0--- 3.3 1.7---- 13.7------------
1961-07-03 20.8 27.0 12.1--- 0.3 0.3---- 0.0------------
1961-07-02 18.8 24.8 10.5--- 0.0 0.3---- 0.0------------
1961-07-01 17.3 23.0 9.7--- 0.3 0.0---- 0.0------------
1961-06-30 15.0 19.7 10.7--- 1.0 0.3---- 0.0------------
1961-06-29 12.7 16.7 5.2--- 4.7 0.3---- 0.0------------
1961-06-28 11.3 22.2 10.3--- 7.0 1.3---- 2.0------------
1961-06-27 22.6 27.7 14.3--- 1.3 3.7---- 19.6------------
1961-06-26 19.4 27.3 14.3--- 3.3 1.7---- 7.9------------
1961-06-25 20.9 26.5 9.5--- 0.7 0.3---- 0.0------------
1961-06-24 17.0 22.4 10.3--- 3.0 1.7---- 0.0------------
1961-06-23 16.6 20.1 12.6--- 4.7 0.7---- 0.0------------
1961-06-22 18.8 23.8 7.5--- 2.3 0.7---- 7.5------------
1961-06-21 13.9 20.9 5.2--- 1.3 1.0---- 0.0------------
1961-06-20 11.7 16.6 9.0--- 3.7 1.0---- 0.0------------
1961-06-19 18.7 24.6 12.1--- 3.3 1.0---- 0.0------------
1961-06-18 17.5 22.9 7.6--- 1.0 0.7---- 0.0------------
1961-06-17 13.6 18.6 4.9--- 1.0 0.0---- 0.0------------
1961-06-16 11.5 16.9 4.5--- 1.7 0.3---- 0.0------------
648.1 ms

 

Źródłem pochodzenia danych jest Instytut Meteorologii i Gospodarki Wodnej – Państwowy Instytut Badawczy. Dane Instytutu Meteorologii i Gospodarki Wodnej – Państwowego Instytutu Badawczego zostały przetworzone.

Dane źródłowe można odnaleźć na stronie https://dane.imgw.pl